createdAt,value
2018-03-26T00:01:24.213Z,1.56
2018-03-26T00:03:51.748Z,1.69
2018-03-26T00:06:19.336Z,1.69
2018-03-26T00:08:47.067Z,2.01
2018-03-26T00:11:14.771Z,1.75
2018-03-26T00:13:42.634Z,1.24
2018-03-26T00:16:10.365Z,1.06
2018-03-26T00:18:38.199Z,0.95
2018-03-26T00:21:05.928Z,0.90
2018-03-26T00:23:33.590Z,0.91
2018-03-26T00:26:01.588Z,0.72
2018-03-26T00:28:29.889Z,0.62
2018-03-26T00:30:57.662Z,0.68
2018-03-26T00:33:25.413Z,0.75
2018-03-26T00:35:53.627Z,0.76
2018-03-26T00:38:21.177Z,1.04
2018-03-26T00:40:49.108Z,1.29
2018-03-26T00:43:17.048Z,1.58
2018-03-26T00:45:44.859Z,1.15
2018-03-26T00:48:12.608Z,1.10
2018-03-26T00:50:40.368Z,1.00
2018-03-26T00:53:08.232Z,0.90
2018-03-26T00:55:35.923Z,0.85
2018-03-26T00:58:03.903Z,0.72
2018-03-26T01:00:31.864Z,0.78
2018-03-26T01:02:59.648Z,0.81
2018-03-26T01:05:27.204Z,0.84
2018-03-26T01:07:55.282Z,0.85
2018-03-26T01:10:23.097Z,1.21
2018-03-26T01:12:50.724Z,1.02
2018-03-26T01:15:18.798Z,0.93
2018-03-26T01:17:46.408Z,0.84
2018-03-26T01:20:14.007Z,0.81
2018-03-26T01:22:42.178Z,0.69
2018-03-26T01:25:09.908Z,0.69
2018-03-26T01:27:37.489Z,0.76
2018-03-26T01:30:05.433Z,1.28
2018-03-26T01:32:33.248Z,1.58
2018-03-26T01:35:01.054Z,1.43
2018-03-26T01:37:28.767Z,1.25
2018-03-26T01:39:56.939Z,1.62
2018-03-26T01:42:24.844Z,1.60
2018-03-26T01:44:53.289Z,1.08
2018-03-26T01:47:21.183Z,0.91
2018-03-26T01:49:48.744Z,1.01
2018-03-26T01:52:17.818Z,1.09
2018-03-26T01:54:45.482Z,0.96
2018-03-26T01:57:13.469Z,0.88
2018-03-26T01:59:41.831Z,1.12
2018-03-26T02:02:10.478Z,0.82
2018-03-26T02:04:38.039Z,0.74
2018-03-26T02:07:06.087Z,0.81
2018-03-26T02:09:34.134Z,0.97
2018-03-26T02:12:02.019Z,0.91
2018-03-26T02:14:29.852Z,0.82
2018-03-26T02:16:57.543Z,1.17
2018-03-26T02:19:25.479Z,1.23
2018-03-26T02:21:53.567Z,0.98
2018-03-26T02:24:21.513Z,1.16
2018-03-26T02:26:49.326Z,0.88
2018-03-26T02:29:17.074Z,0.61
2018-03-26T02:31:44.763Z,0.57
2018-03-26T02:34:12.830Z,0.56
2018-03-26T02:36:40.602Z,0.66
2018-03-26T02:39:08.137Z,0.74
2018-03-26T02:41:35.894Z,0.89
2018-03-26T02:44:03.506Z,1.08
2018-03-26T02:46:31.265Z,0.99
2018-03-26T02:48:59.064Z,0.81
2018-03-26T02:51:27.305Z,0.69
2018-03-26T02:53:55.184Z,0.72
2018-03-26T02:56:22.815Z,0.66
2018-03-26T02:58:50.645Z,0.29
2018-03-26T03:01:18.455Z,0.68
2018-03-26T03:03:46.152Z,0.67
2018-03-26T03:06:14.065Z,0.86
2018-03-26T03:08:41.793Z,0.54
2018-03-26T03:11:09.484Z,0.09
2018-03-26T03:13:37.162Z,0.10
2018-03-26T03:16:05.009Z,0.47
2018-03-26T03:18:32.804Z,0.32
2018-03-26T03:21:00.627Z,-0.18
2018-03-26T03:23:28.517Z,-0.09
2018-03-26T03:25:56.433Z,0.08
2018-03-26T03:28:24.162Z,0.18
2018-03-26T03:30:51.960Z,-0.04
2018-03-26T03:33:19.728Z,-0.32
2018-03-26T03:35:47.444Z,-0.11
2018-03-26T03:38:15.014Z,0.63
2018-03-26T03:40:42.953Z,0.49
2018-03-26T03:43:10.533Z,0.12
2018-03-26T03:45:38.974Z,-0.29
2018-03-26T03:48:06.542Z,-0.39
2018-03-26T03:50:35.143Z,-0.41
2018-03-26T03:53:03.364Z,-0.20
2018-03-26T03:55:32.228Z,-0.33
2018-03-26T03:57:59.956Z,-0.43
2018-03-26T04:00:27.909Z,-0.37
2018-03-26T04:02:56.317Z,-0.14
2018-03-26T04:05:24.054Z,-0.25
2018-03-26T04:07:52.422Z,0.10
2018-03-26T04:10:20.934Z,0.32
2018-03-26T04:12:48.768Z,0.30
2018-03-26T04:15:16.503Z,0.15
2018-03-26T04:17:44.634Z,-0.24
2018-03-26T04:20:12.193Z,-0.19
2018-03-26T04:22:40.265Z,0.31
2018-03-26T04:25:08.152Z,0.50
2018-03-26T04:27:35.964Z,0.71
2018-03-26T04:30:04.149Z,0.81
2018-03-26T04:32:32.164Z,0.82
2018-03-26T04:35:00.127Z,0.89
2018-03-26T04:37:27.702Z,1.07
2018-03-26T04:39:55.682Z,0.90
2018-03-26T04:42:23.363Z,0.88
2018-03-26T04:44:51.132Z,0.79
2018-03-26T04:47:18.848Z,0.92
2018-03-26T04:49:46.905Z,1.31
2018-03-26T04:52:14.507Z,1.33
2018-03-26T04:54:42.468Z,1.03
2018-03-26T04:57:10.494Z,0.65
2018-03-26T04:59:39.062Z,0.81
2018-03-26T05:02:06.608Z,1.04
2018-03-26T05:04:34.414Z,1.16
2018-03-26T05:07:02.160Z,1.17
2018-03-26T05:09:29.959Z,1.37
2018-03-26T05:11:57.626Z,1.48
2018-03-26T05:14:25.298Z,1.48
2018-03-26T05:16:52.951Z,1.28
2018-03-26T05:19:20.762Z,1.23
2018-03-26T05:21:48.513Z,1.55
2018-03-26T05:24:16.607Z,1.73
2018-03-26T05:26:44.941Z,1.80
2018-03-26T05:29:12.478Z,1.92
2018-03-26T05:31:40.483Z,2.10
2018-03-26T05:34:08.629Z,2.23
2018-03-26T05:36:36.438Z,2.20
2018-03-26T05:39:04.359Z,1.80
2018-03-26T05:41:32.289Z,1.70
2018-03-26T05:44:00.163Z,1.83
2018-03-26T05:46:27.832Z,2.10
2018-03-26T05:48:55.804Z,2.07
2018-03-26T05:51:23.421Z,2.14
2018-03-26T05:53:51.028Z,1.67
2018-03-26T05:56:18.802Z,1.61
2018-03-26T05:58:46.841Z,1.74
2018-03-26T06:01:14.822Z,1.77
2018-03-26T06:03:42.700Z,2.12
2018-03-26T06:06:10.532Z,2.17
2018-03-26T06:08:38.703Z,1.79
2018-03-26T06:11:06.408Z,1.61
2018-03-26T06:13:34.503Z,1.73
2018-03-26T06:16:02.802Z,2.03
2018-03-26T06:18:30.783Z,2.17
2018-03-26T06:20:58.594Z,1.99
2018-03-26T06:23:26.155Z,1.99
2018-03-26T06:25:54.088Z,2.25
2018-03-26T06:28:21.836Z,2.53
2018-03-26T06:30:49.594Z,2.52
2018-03-26T06:33:17.816Z,2.58
2018-03-26T06:35:46.088Z,2.75
2018-03-26T06:38:33.512Z,2.99
2018-03-26T06:41:02.508Z,3.11
2018-03-26T06:43:30.357Z,3.10
2018-03-26T06:45:58.097Z,2.73
2018-03-26T06:48:25.903Z,2.64
2018-03-26T06:50:54.518Z,2.76
2018-03-26T06:53:22.262Z,2.54
2018-03-26T06:55:49.977Z,2.62
2018-03-26T06:58:17.846Z,2.57
2018-03-26T07:00:45.414Z,2.75
2018-03-26T07:03:13.331Z,3.02
2018-03-26T07:05:41.043Z,3.14
2018-03-26T07:08:09.773Z,3.09
2018-03-26T07:10:37.400Z,3.27
2018-03-26T07:13:05.142Z,3.58
2018-03-26T07:15:32.913Z,3.74
2018-03-26T07:18:00.647Z,3.56
2018-03-26T07:20:28.637Z,4.03
2018-03-26T07:22:56.168Z,4.12
2018-03-26T07:25:23.755Z,4.04
2018-03-26T07:27:51.742Z,4.47
2018-03-26T07:30:19.373Z,4.47
2018-03-26T07:32:47.202Z,4.48
2018-03-26T07:35:14.916Z,4.52
2018-03-26T07:37:43.009Z,4.69
2018-03-26T07:40:11.047Z,4.56
2018-03-26T07:42:38.946Z,4.67
2018-03-26T07:45:06.697Z,4.98
2018-03-26T07:47:34.444Z,5.49
2018-03-26T07:50:03.313Z,5.41
2018-03-26T07:52:31.208Z,5.20
2018-03-26T07:54:59.852Z,5.05
2018-03-26T07:57:28.538Z,5.20
2018-03-26T07:59:56.252Z,5.48
2018-03-26T08:02:23.962Z,5.29
2018-03-26T08:04:51.607Z,5.63
2018-03-26T08:07:19.878Z,5.92
2018-03-26T08:09:47.728Z,6.34
2018-03-26T08:12:15.860Z,6.25
2018-03-26T08:14:43.701Z,6.11
2018-03-26T08:17:11.626Z,6.74
2018-03-26T08:19:39.499Z,6.68
2018-03-26T08:22:07.187Z,6.98
2018-03-26T08:24:35.498Z,7.05
2018-03-26T08:27:03.085Z,7.23
2018-03-26T08:29:30.805Z,7.58
2018-03-26T08:31:58.427Z,7.95
2018-03-26T08:34:26.533Z,8.60
2018-03-26T08:36:54.354Z,9.31
2018-03-26T08:39:22.250Z,9.89
2018-03-26T08:41:49.925Z,10.21
2018-03-26T08:44:17.754Z,10.18
2018-03-26T08:46:45.986Z,9.85
2018-03-26T08:49:14.052Z,10.64
2018-03-26T08:51:41.860Z,10.61
2018-03-26T08:54:09.668Z,10.12
2018-03-26T08:56:37.329Z,9.96
2018-03-26T08:59:05.083Z,10.54
2018-03-26T09:01:33.407Z,10.87
2018-03-26T09:04:01.339Z,10.96
2018-03-26T09:06:29.389Z,10.74
2018-03-26T09:08:56.952Z,11.66
2018-03-26T09:11:25.183Z,11.97
2018-03-26T09:13:52.869Z,11.20
2018-03-26T09:16:20.627Z,11.15
2018-03-26T09:18:48.395Z,11.79
2018-03-26T09:21:16.489Z,12.27
2018-03-26T09:23:44.443Z,12.70
2018-03-26T09:26:12.547Z,13.29
2018-03-26T09:28:40.774Z,12.25
2018-03-26T09:31:08.409Z,10.58
2018-03-26T09:33:35.983Z,10.84
2018-03-26T09:36:04.142Z,12.50
2018-03-26T09:38:31.944Z,12.96
2018-03-26T09:40:59.752Z,13.80
2018-03-26T09:43:27.694Z,14.45
2018-03-26T09:45:56.262Z,14.19
2018-03-26T09:48:23.932Z,14.38
2018-03-26T09:50:52.108Z,14.14
2018-03-26T09:53:20.456Z,12.94
2018-03-26T09:55:48.747Z,13.06
2018-03-26T09:58:16.438Z,12.34
2018-03-26T10:00:48.968Z,11.91
2018-03-26T10:03:16.654Z,12.59
2018-03-26T10:05:44.823Z,13.16
2018-03-26T10:08:13.253Z,13.52
2018-03-26T10:10:41.790Z,13.47
2018-03-26T10:13:10.012Z,13.81
2018-03-26T10:15:38.993Z,14.21
2018-03-26T10:18:06.806Z,13.78
2018-03-26T10:20:34.414Z,12.21
2018-03-26T10:23:02.329Z,11.20
2018-03-26T10:25:30.778Z,12.29
2018-03-26T10:27:58.414Z,12.45
2018-03-26T10:30:26.047Z,13.55
2018-03-26T10:32:53.728Z,13.27
2018-03-26T10:35:21.558Z,12.68
2018-03-26T10:37:49.501Z,11.95
2018-03-26T10:40:17.472Z,11.31
2018-03-26T10:42:45.383Z,11.97
2018-03-26T10:45:13.099Z,12.68
2018-03-26T10:47:40.807Z,12.63
2018-03-26T10:50:08.602Z,12.79
2018-03-26T10:52:36.411Z,11.83
2018-03-26T10:55:04.116Z,12.87
2018-03-26T10:57:31.676Z,12.88
2018-03-26T10:59:59.434Z,12.52
2018-03-26T11:02:27.118Z,12.78
2018-03-26T11:04:54.817Z,12.28
2018-03-26T11:07:23.566Z,12.54
2018-03-26T11:09:51.156Z,12.31
2018-03-26T11:12:18.951Z,11.84
2018-03-26T11:14:46.608Z,11.47
2018-03-26T11:17:14.381Z,11.46
2018-03-26T11:19:42.259Z,11.53
2018-03-26T11:22:15.463Z,11.56
2018-03-26T11:24:44.081Z,11.20
2018-03-26T11:27:12.828Z,11.90
2018-03-26T11:29:40.843Z,12.07
2018-03-26T11:32:09.374Z,12.26
2018-03-26T11:34:37.173Z,11.59
2018-03-26T11:37:04.911Z,11.97
2018-03-26T11:39:32.867Z,12.62
2018-03-26T11:42:00.728Z,12.60
2018-03-26T11:44:28.601Z,12.93
2018-03-26T11:46:56.764Z,12.27
2018-03-26T11:49:24.751Z,12.65
2018-03-26T11:51:52.726Z,12.37
2018-03-26T11:54:20.687Z,12.17
2018-03-26T11:56:48.262Z,12.26
2018-03-26T11:59:16.448Z,12.15
2018-03-26T12:01:44.446Z,12.47
2018-03-26T12:04:12.162Z,11.93
2018-03-26T12:06:40.256Z,12.61
2018-03-26T12:09:08.556Z,13.01
2018-03-26T12:11:38.904Z,13.38
2018-03-26T12:14:06.912Z,13.93
2018-03-26T12:16:34.748Z,13.81
2018-03-26T12:19:02.322Z,13.50
2018-03-26T12:21:30.053Z,13.42
2018-03-26T12:24:09.827Z,13.09
2018-03-26T12:26:37.558Z,12.59
2018-03-26T12:29:17.121Z,12.67
2018-03-26T12:31:44.941Z,12.44
2018-03-26T12:34:24.814Z,13.09
2018-03-26T12:36:52.672Z,13.27
2018-03-26T12:39:20.257Z,13.29
2018-03-26T12:41:48.012Z,13.26
2018-03-26T12:44:27.773Z,13.50
2018-03-26T12:46:56.083Z,13.48
2018-03-26T12:49:23.816Z,13.54
2018-03-26T12:54:53.838Z,15.07
2018-03-26T12:57:33.258Z,15.32
2018-03-26T13:00:01.143Z,14.75
2018-03-26T13:02:28.828Z,14.56
2018-03-26T13:04:56.747Z,14.59
2018-03-26T13:07:24.652Z,14.54
2018-03-26T13:09:52.813Z,14.60
2018-03-26T13:12:20.869Z,14.32
2018-03-26T13:14:48.977Z,15.28
2018-03-26T13:17:16.621Z,15.01
2018-03-26T13:19:44.392Z,14.71
2018-03-26T13:22:13.046Z,14.76
2018-03-26T13:24:41.402Z,15.34
2018-03-26T13:27:09.203Z,15.62
2018-03-26T13:29:37.129Z,15.30
2018-03-26T13:32:05.119Z,16.71
2018-03-26T13:34:32.847Z,15.85
2018-03-26T13:37:00.752Z,16.27
2018-03-26T13:39:28.452Z,16.33
2018-03-26T13:41:56.537Z,16.19
2018-03-26T13:44:24.414Z,15.64
2018-03-26T13:46:52.398Z,15.41
2018-03-26T13:49:20.436Z,14.07
2018-03-26T13:51:48.327Z,13.81
2018-03-26T13:54:16.918Z,12.61
2018-03-26T13:56:44.626Z,12.21
2018-03-26T13:59:12.430Z,11.99
2018-03-26T14:01:40.161Z,11.91
2018-03-26T14:04:07.926Z,11.88
2018-03-26T14:06:35.501Z,12.65
2018-03-26T14:09:15.088Z,12.90
2018-03-26T14:11:54.881Z,12.69
2018-03-26T14:14:34.611Z,13.30
2018-03-26T14:17:14.494Z,12.64
2018-03-26T14:19:42.262Z,12.61
2018-03-26T14:22:09.838Z,12.35
2018-03-26T14:24:37.493Z,12.71
2018-03-26T14:27:05.391Z,12.93
2018-03-26T14:29:33.210Z,12.62
2018-03-26T14:32:01.032Z,12.81
2018-03-26T14:34:28.772Z,12.63
2018-03-26T14:36:56.592Z,12.20
2018-03-26T14:39:24.522Z,11.95
2018-03-26T14:41:52.365Z,11.77
2018-03-26T14:44:20.105Z,11.65
2018-03-26T14:46:47.813Z,11.97
2018-03-26T14:49:15.533Z,11.88
2018-03-26T14:51:43.456Z,11.43
2018-03-26T14:54:11.779Z,11.45
2018-03-26T14:56:40.518Z,11.18
2018-03-26T14:59:08.362Z,11.24
2018-03-26T15:01:36.353Z,11.35
2018-03-26T15:04:04.573Z,11.01
2018-03-26T15:06:32.307Z,11.23
2018-03-26T15:09:00.183Z,10.77
2018-03-26T15:11:28.031Z,10.75
2018-03-26T15:13:55.970Z,10.73
2018-03-26T15:16:23.737Z,10.73
2018-03-26T15:18:51.499Z,10.79
2018-03-26T15:21:19.153Z,10.62
2018-03-26T15:23:47.047Z,10.44
2018-03-26T15:26:14.688Z,10.43
2018-03-26T15:28:42.463Z,10.40
2018-03-26T15:31:10.357Z,10.31
2018-03-26T15:33:38.852Z,10.43
2018-03-26T15:36:06.672Z,10.10
2018-03-26T15:38:34.282Z,10.12
2018-03-26T15:41:02.400Z,9.73
2018-03-26T15:43:30.229Z,9.76
2018-03-26T15:45:57.937Z,9.64
2018-03-26T15:48:25.491Z,9.52
2018-03-26T15:50:53.272Z,9.65
2018-03-26T15:53:20.971Z,9.60
2018-03-26T15:55:48.740Z,9.70
2018-03-26T15:58:16.680Z,9.69
2018-03-26T16:00:44.301Z,9.66
2018-03-26T16:03:17.836Z,9.52
2018-03-26T16:05:45.552Z,9.59
2018-03-26T16:08:13.837Z,9.65
2018-03-26T16:10:41.552Z,9.52
2018-03-26T16:13:09.298Z,9.68
2018-03-26T16:15:36.945Z,9.67
2018-03-26T16:18:04.898Z,9.71
2018-03-26T16:20:33.977Z,9.61
2018-03-26T16:23:01.872Z,9.46
2018-03-26T16:25:29.973Z,9.46
2018-03-26T16:27:57.638Z,9.48
2018-03-26T16:30:25.507Z,9.47
2018-03-26T16:32:53.408Z,9.39
2018-03-26T16:35:26.757Z,9.69
2018-03-26T16:37:54.767Z,9.59
2018-03-26T16:40:22.541Z,9.32
2018-03-26T16:42:54.616Z,9.06
2018-03-26T16:45:22.552Z,8.90
2018-03-26T16:47:51.423Z,8.74
2018-03-26T16:50:19.297Z,8.87
2018-03-26T16:52:46.858Z,8.69
2018-03-26T16:55:14.602Z,8.89
2018-03-26T16:57:42.338Z,8.93
2018-03-26T17:00:09.966Z,9.00
2018-03-26T17:02:37.612Z,8.89
2018-03-26T17:05:05.354Z,8.91
2018-03-26T17:07:33.155Z,8.79
2018-03-26T17:10:01.233Z,8.79
2018-03-26T17:12:29.207Z,8.59
2018-03-26T17:14:57.296Z,8.44
2018-03-26T17:17:25.108Z,8.43
2018-03-26T17:19:52.761Z,8.59
2018-03-26T17:22:20.921Z,8.54
2018-03-26T17:24:48.768Z,8.28
2018-03-26T17:27:16.838Z,8.17
2018-03-26T17:29:44.720Z,8.02
2018-03-26T17:32:12.536Z,7.96
2018-03-26T17:34:40.294Z,7.72
2018-03-26T17:37:08.066Z,7.56
2018-03-26T17:39:36.011Z,7.55
2018-03-26T17:42:04.361Z,7.22
2018-03-26T17:44:32.096Z,7.24
2018-03-26T17:47:00.115Z,6.91
2018-03-26T17:49:28.066Z,6.82
2018-03-26T17:51:55.658Z,6.62
2018-03-26T17:54:23.537Z,6.40
2018-03-26T17:56:51.981Z,6.20
2018-03-26T17:59:19.714Z,6.28
2018-03-26T18:01:47.276Z,6.17
2018-03-26T18:04:15.767Z,6.09
2018-03-26T18:06:43.461Z,6.03
2018-03-26T18:09:11.278Z,6.20
2018-03-26T18:11:38.873Z,5.77
2018-03-26T18:14:06.624Z,5.44
2018-03-26T18:16:34.487Z,5.37
2018-03-26T18:19:02.066Z,5.14
2018-03-26T18:21:29.836Z,5.20
2018-03-26T18:23:57.422Z,4.99
2018-03-26T18:26:26.647Z,4.81
2018-03-26T18:28:54.448Z,4.75
2018-03-26T18:31:22.509Z,4.75
2018-03-26T18:33:50.302Z,4.51
2018-03-26T18:36:17.996Z,4.44
2018-03-26T18:38:45.786Z,3.96
2018-03-26T18:41:13.677Z,4.13
2018-03-26T18:43:41.367Z,4.33
2018-03-26T18:46:09.111Z,4.36
2018-03-26T18:48:36.885Z,4.45
2018-03-26T18:51:04.443Z,4.50
2018-03-26T18:53:32.167Z,3.87
2018-03-26T18:56:00.088Z,4.07
2018-03-26T18:58:28.015Z,4.09
2018-03-26T19:00:55.946Z,4.25
2018-03-26T19:03:23.724Z,4.20
2018-03-26T19:05:51.671Z,3.98
2018-03-26T19:08:19.633Z,3.93
2018-03-26T19:10:47.801Z,4.39
2018-03-26T19:13:15.636Z,4.14
2018-03-26T19:15:43.404Z,4.18
2018-03-26T19:18:12.286Z,4.06
2018-03-26T19:20:40.152Z,4.08
2018-03-26T19:23:08.051Z,4.17
2018-03-26T19:25:35.632Z,4.39
2018-03-26T19:28:03.287Z,4.40
2018-03-26T19:30:31.488Z,4.42
2018-03-26T19:32:59.512Z,4.17
2018-03-26T19:35:27.498Z,4.15
2018-03-26T19:37:55.623Z,3.75
2018-03-26T19:40:23.716Z,3.75
2018-03-26T19:42:51.892Z,3.37
2018-03-26T19:45:20.842Z,3.32
2018-03-26T19:47:48.641Z,3.54
2018-03-26T19:50:16.299Z,3.22
2018-03-26T19:52:44.755Z,3.71
2018-03-26T19:55:12.361Z,3.84
2018-03-26T19:57:40.387Z,4.12
2018-03-26T20:00:08.347Z,4.01
2018-03-26T20:02:36.035Z,4.03
2018-03-26T20:05:03.888Z,4.37
2018-03-26T20:07:31.677Z,4.28
2018-03-26T20:09:59.507Z,3.72
2018-03-26T20:12:27.884Z,3.73
2018-03-26T20:14:56.577Z,3.72
2018-03-26T20:17:24.296Z,3.55
2018-03-26T20:19:52.006Z,3.85
2018-03-26T20:22:20.693Z,3.96
2018-03-26T20:24:48.538Z,4.13
2018-03-26T20:27:16.187Z,4.30
2018-03-26T20:29:43.903Z,3.81
2018-03-26T20:32:11.801Z,3.38
2018-03-26T20:34:39.588Z,3.57
2018-03-26T20:37:08.328Z,3.77
2018-03-26T20:39:36.042Z,3.96
2018-03-26T20:42:03.869Z,4.21
2018-03-26T20:44:31.745Z,4.37
2018-03-26T20:47:00.406Z,3.87
2018-03-26T20:49:27.972Z,4.08
2018-03-26T20:51:55.696Z,4.04
2018-03-26T20:54:23.416Z,4.35
2018-03-26T20:56:51.745Z,4.40
2018-03-26T20:59:19.503Z,4.57
2018-03-26T21:01:47.230Z,4.44
2018-03-26T21:04:15.017Z,4.15
2018-03-26T21:06:42.664Z,4.25
2018-03-26T21:09:10.621Z,4.27
2018-03-26T21:11:38.387Z,4.12
2018-03-26T21:14:06.402Z,3.78
2018-03-26T21:16:34.370Z,3.99
2018-03-26T21:19:02.123Z,4.34
2018-03-26T21:21:29.691Z,4.45
2018-03-26T21:23:57.394Z,4.49
2018-03-26T21:26:25.927Z,4.57
2018-03-26T21:28:53.578Z,4.38
2018-03-26T21:31:21.203Z,4.43
2018-03-26T21:33:49.219Z,4.36
2018-03-26T21:36:16.972Z,4.31
2018-03-26T21:38:44.737Z,4.23
2018-03-26T21:41:12.415Z,4.22
2018-03-26T21:43:40.138Z,4.35
2018-03-26T21:46:07.908Z,4.40
2018-03-26T21:48:36.181Z,4.61
2018-03-26T21:51:03.849Z,4.71
2018-03-26T21:53:31.556Z,4.80
2018-03-26T21:55:59.275Z,4.74
2018-03-26T21:58:27.193Z,4.79
2018-03-26T22:00:54.928Z,4.87
2018-03-26T22:03:22.657Z,4.55
2018-03-26T22:05:50.552Z,4.44
2018-03-26T22:08:18.308Z,4.29
2018-03-26T22:10:46.281Z,4.42
2018-03-26T22:13:14.017Z,4.74
2018-03-26T22:15:41.607Z,4.44
2018-03-26T22:18:09.213Z,4.11
2018-03-26T22:20:37.035Z,4.21
2018-03-26T22:23:04.645Z,4.56
2018-03-26T22:25:32.571Z,4.74
2018-03-26T22:28:00.377Z,4.78
2018-03-26T22:30:28.208Z,4.85
2018-03-26T22:32:55.970Z,4.87
2018-03-26T22:35:23.672Z,4.84
2018-03-26T22:37:51.643Z,5.00
2018-03-26T22:40:19.538Z,4.96
2018-03-26T22:42:47.221Z,4.91
2018-03-26T22:45:15.261Z,4.63
2018-03-26T22:47:42.893Z,4.72
2018-03-26T22:50:10.886Z,4.84
2018-03-26T22:52:38.437Z,4.61
2018-03-26T22:55:06.164Z,4.60
2018-03-26T22:57:34.127Z,4.63
2018-03-26T23:00:01.833Z,4.75
2018-03-26T23:02:29.703Z,4.71
2018-03-26T23:04:57.632Z,4.67
2018-03-26T23:07:25.403Z,4.52
2018-03-26T23:09:53.136Z,4.64
2018-03-26T23:12:20.817Z,4.81
2018-03-26T23:14:49.832Z,4.88
2018-03-26T23:17:17.757Z,4.85
2018-03-26T23:19:45.677Z,4.90
2018-03-26T23:22:13.392Z,4.85
2018-03-26T23:24:41.372Z,4.76
2018-03-26T23:27:09.388Z,5.07
2018-03-26T23:29:37.080Z,4.96
2018-03-26T23:32:04.750Z,4.68
2018-03-26T23:34:32.566Z,4.66
2018-03-26T23:37:01.035Z,4.83
2018-03-26T23:39:28.696Z,4.82
2018-03-26T23:41:56.373Z,4.92
2018-03-26T23:44:24.813Z,5.06
2018-03-26T23:46:52.444Z,4.92
2018-03-26T23:49:20.252Z,4.84
2018-03-26T23:51:47.940Z,4.65
2018-03-26T23:54:15.951Z,4.56
2018-03-26T23:56:43.832Z,5.00
2018-03-26T23:59:11.731Z,4.70
